createdAt,value
2022-08-07T00:00:29.384Z,19.76
2022-08-07T00:03:01.529Z,19.72
2022-08-07T00:05:36.313Z,19.71
2022-08-07T00:08:09.031Z,19.68
2022-08-07T00:10:48.007Z,19.67
2022-08-07T00:13:23.788Z,19.66
2022-08-07T00:15:58.062Z,19.64
2022-08-07T00:18:30.137Z,19.63
2022-08-07T00:21:08.164Z,19.63
2022-08-07T00:23:57.353Z,19.62
2022-08-07T00:26:48.701Z,19.61
2022-08-07T00:29:25.981Z,19.59
2022-08-07T00:32:03.796Z,19.57
2022-08-07T00:34:38.012Z,19.53
2022-08-07T00:37:10.636Z,19.50
2022-08-07T00:39:44.886Z,19.47
2022-08-07T00:42:17.763Z,19.45
2022-08-07T00:44:49.817Z,19.42
2022-08-07T00:48:08.121Z,19.40
2022-08-07T00:50:20.545Z,19.39
2022-08-07T00:53:09.244Z,19.33
2022-08-07T00:56:02.599Z,19.30
2022-08-07T00:58:34.910Z,19.28
2022-08-07T01:01:07.553Z,19.24
2022-08-07T01:03:55.359Z,19.22
2022-08-07T01:06:30.303Z,19.20
2022-08-07T01:09:03.073Z,19.18
2022-08-07T01:12:23.262Z,19.17
2022-08-07T01:14:28.609Z,19.15
2022-08-07T01:17:04.059Z,19.14
2022-08-07T01:19:39.939Z,19.11
2022-08-07T01:22:22.891Z,19.10
2022-08-07T01:25:20.729Z,19.09
2022-08-07T01:27:55.779Z,19.06
2022-08-07T01:30:28.883Z,19.05
2022-08-07T01:33:02.277Z,19.03
2022-08-07T01:35:52.788Z,19.01
2022-08-07T01:38:29.958Z,18.99
2022-08-07T01:41:11.983Z,18.99
2022-08-07T01:44:01.714Z,18.95
2022-08-07T01:46:36.437Z,18.93
2022-08-07T01:49:13.347Z,18.91
2022-08-07T01:52:03.755Z,18.90
2022-08-07T01:54:40.200Z,18.88
2022-08-07T01:57:24.212Z,18.86
2022-08-07T02:00:02.218Z,18.83
2022-08-07T02:03:21.926Z,18.80
2022-08-07T02:06:30.847Z,18.76
2022-08-07T02:09:03.585Z,18.74
2022-08-07T02:12:02.575Z,18.71
2022-08-07T02:14:36.666Z,18.70
2022-08-07T02:17:27.412Z,18.69
2022-08-07T02:20:04.375Z,18.66
2022-08-07T02:22:41.386Z,18.66
2022-08-07T02:25:18.515Z,18.64
2022-08-07T02:28:01.061Z,18.63
2022-08-07T02:30:35.772Z,18.64
2022-08-07T02:33:24.020Z,18.63
2022-08-07T02:36:27.190Z,18.62
2022-08-07T02:39:01.790Z,18.61
2022-08-07T02:41:47.248Z,18.58
2022-08-07T02:44:27.477Z,18.56
2022-08-07T02:47:05.766Z,18.56
2022-08-07T02:49:57.777Z,18.56
2022-08-07T02:52:54.740Z,18.57
2022-08-07T02:56:03.891Z,18.54
2022-08-07T02:58:34.525Z,18.50
2022-08-07T03:01:16.043Z,18.49
2022-08-07T03:03:52.100Z,18.46
2022-08-07T03:06:33.271Z,18.44
2022-08-07T03:09:11.279Z,18.43
2022-08-07T03:11:51.914Z,18.40
2022-08-07T03:14:32.451Z,18.36
2022-08-07T03:17:05.801Z,18.35
2022-08-07T03:19:41.992Z,18.32
2022-08-07T03:22:19.014Z,18.30
2022-08-07T03:24:52.327Z,18.30
2022-08-07T03:27:25.347Z,18.30
2022-08-07T03:30:06.220Z,18.29
2022-08-07T03:32:58.192Z,18.27
2022-08-07T03:35:44.036Z,18.25
2022-08-07T03:38:29.686Z,18.22
2022-08-07T03:41:07.583Z,18.21
2022-08-07T03:43:44.041Z,18.20
2022-08-07T03:46:30.172Z,18.18
2022-08-07T03:49:03.505Z,18.17
2022-08-07T03:51:47.321Z,18.17
2022-08-07T03:54:36.393Z,18.18
2022-08-07T03:58:08.829Z,18.17
2022-08-07T04:00:10.528Z,18.19
2022-08-07T04:02:51.363Z,18.19
2022-08-07T04:05:40.391Z,18.20
2022-08-07T04:08:18.479Z,18.19
2022-08-07T04:12:15.339Z,18.20
2022-08-07T04:14:32.987Z,18.20
2022-08-07T04:16:43.099Z,18.20
2022-08-07T04:19:34.035Z,18.20
2022-08-07T04:22:29.191Z,18.21
2022-08-07T04:25:08.905Z,18.21
2022-08-07T04:27:59.206Z,18.22
2022-08-07T04:30:39.580Z,18.22
2022-08-07T04:33:25.006Z,18.22
2022-08-07T04:35:58.763Z,18.21
2022-08-07T04:38:33.727Z,18.19
2022-08-07T04:41:06.681Z,18.20
2022-08-07T04:44:09.609Z,18.20
2022-08-07T04:47:08.477Z,18.24
2022-08-07T04:50:13.748Z,18.25
2022-08-07T04:53:39.916Z,18.26
2022-08-07T04:58:10.971Z,18.29
2022-08-07T05:00:11.603Z,18.33
2022-08-07T05:02:26.212Z,18.35
2022-08-07T05:05:53.911Z,18.38
2022-08-07T05:09:00.072Z,18.41
2022-08-07T05:11:57.537Z,18.42
2022-08-07T05:14:52.109Z,18.45
2022-08-07T05:17:52.291Z,18.47
2022-08-07T05:20:27.033Z,18.43
2022-08-07T05:23:15.565Z,18.42
2022-08-07T05:26:10.726Z,18.43
2022-08-07T05:28:48.484Z,18.42
2022-08-07T05:31:34.656Z,18.44
2022-08-07T05:34:13.779Z,18.45
2022-08-07T05:36:52.679Z,18.50
2022-08-07T05:40:14.007Z,18.55
2022-08-07T05:42:34.639Z,18.57
2022-08-07T05:45:26.141Z,18.59
2022-08-07T05:48:09.161Z,18.58
2022-08-07T05:50:47.585Z,18.60
2022-08-07T05:54:12.099Z,18.61
2022-08-07T05:56:19.634Z,18.62
2022-08-07T05:58:56.067Z,18.65
2022-08-07T06:01:34.767Z,18.66
2022-08-07T06:04:09.279Z,18.69
2022-08-07T06:06:46.354Z,18.72
2022-08-07T06:09:21.180Z,18.76
2022-08-07T06:12:15.672Z,18.79
2022-08-07T06:14:49.649Z,18.82
2022-08-07T06:17:23.214Z,18.85
2022-08-07T06:20:12.833Z,18.90
2022-08-07T06:23:02.188Z,18.95
2022-08-07T06:25:54.572Z,18.98
2022-08-07T06:28:30.802Z,19.03
2022-08-07T06:31:03.909Z,19.06
2022-08-07T06:33:38.385Z,19.07
2022-08-07T06:36:13.888Z,19.08
2022-08-07T06:40:13.206Z,19.07
2022-08-07T06:42:05.505Z,19.09
2022-08-07T06:44:57.406Z,19.16
2022-08-07T06:47:38.754Z,19.22
2022-08-07T06:50:22.809Z,19.28
2022-08-07T06:52:57.371Z,19.39
2022-08-07T06:55:53.787Z,19.59
2022-08-07T06:58:28.787Z,19.84
2022-08-07T07:01:09.520Z,19.94
2022-08-07T07:03:49.996Z,19.95
2022-08-07T07:06:29.425Z,19.96
2022-08-07T07:09:26.347Z,19.97
2022-08-07T07:12:21.642Z,19.97
2022-08-07T07:15:24.142Z,19.99
2022-08-07T07:18:46.918Z,19.98
2022-08-07T07:21:24.317Z,19.95
2022-08-07T07:24:05.930Z,19.91
2022-08-07T07:26:51.850Z,19.95
2022-08-07T07:29:40.049Z,20.03
2022-08-07T07:32:19.094Z,20.33
2022-08-07T07:34:54.634Z,20.43
2022-08-07T07:37:45.251Z,20.43
2022-08-07T07:40:20.666Z,20.44
2022-08-07T07:43:15.267Z,20.48
2022-08-07T07:46:38.065Z,20.40
2022-08-07T07:48:48.577Z,20.31
2022-08-07T07:51:21.761Z,20.29
2022-08-07T07:53:54.833Z,20.30
2022-08-07T07:56:32.024Z,20.37
2022-08-07T07:59:06.083Z,20.40
2022-08-07T08:02:02.576Z,20.47
2022-08-07T08:04:35.530Z,20.59
2022-08-07T08:07:10.699Z,20.70
2022-08-07T08:09:52.058Z,20.77
2022-08-07T08:12:58.818Z,20.80
2022-08-07T08:15:57.721Z,20.81
2022-08-07T08:18:28.083Z,20.87
2022-08-07T08:21:01.653Z,20.91
2022-08-07T08:23:53.747Z,20.96
2022-08-07T08:26:44.392Z,20.96
2022-08-07T08:29:22.960Z,20.98
2022-08-07T08:32:16.821Z,21.05
2022-08-07T08:34:49.160Z,21.10
2022-08-07T08:38:00.679Z,21.10
2022-08-07T08:40:28.283Z,21.09
2022-08-07T08:43:41.878Z,21.17
2022-08-07T08:46:44.985Z,21.27
2022-08-07T08:49:32.777Z,21.29
2022-08-07T08:52:14.067Z,21.30
2022-08-07T08:54:59.187Z,21.27
2022-08-07T08:57:45.201Z,21.23
2022-08-07T09:00:18.256Z,21.16
2022-08-07T09:03:07.478Z,21.11
2022-08-07T09:05:53.600Z,21.15
2022-08-07T09:08:47.529Z,21.17
2022-08-07T09:11:50.341Z,21.21
2022-08-07T09:14:31.680Z,21.26
2022-08-07T09:17:17.678Z,21.32
2022-08-07T09:20:35.191Z,21.40
2022-08-07T09:24:30.560Z,21.45
2022-08-07T09:26:31.674Z,21.46
2022-08-07T09:30:03.833Z,21.50
2022-08-07T09:33:05.391Z,21.55
2022-08-07T09:36:02.815Z,21.54
2022-08-07T09:38:50.233Z,21.51
2022-08-07T09:41:43.545Z,21.52
2022-08-07T09:47:27.389Z,21.56
2022-08-07T09:48:03.965Z,21.59
2022-08-07T09:50:56.436Z,21.58
2022-08-07T09:53:40.793Z,21.58
2022-08-07T09:56:44.700Z,21.61
2022-08-07T10:00:00.533Z,21.65
2022-08-07T10:04:06.406Z,21.68
2022-08-07T10:06:28.917Z,21.76
2022-08-07T10:09:13.396Z,21.81
2022-08-07T10:12:21.773Z,21.84
2022-08-07T10:15:05.328Z,21.88
2022-08-07T10:18:01.851Z,21.92
2022-08-07T10:20:50.186Z,21.99
2022-08-07T10:24:18.427Z,22.09
2022-08-07T10:30:27.884Z,22.25
2022-08-07T10:34:15.375Z,22.25
2022-08-07T10:36:52.256Z,22.26
2022-08-07T10:39:41.567Z,22.27
2022-08-07T10:42:36.613Z,22.31
2022-08-07T10:45:19.393Z,22.41
2022-08-07T10:48:13.547Z,22.48
2022-08-07T10:50:50.122Z,22.58
2022-08-07T10:53:22.772Z,22.73
2022-08-07T10:56:09.678Z,22.91
2022-08-07T10:59:10.087Z,23.06
2022-08-07T11:02:05.241Z,23.15
2022-08-07T11:05:49.257Z,23.24
2022-08-07T11:08:43.881Z,23.20
2022-08-07T11:12:05.583Z,23.10
2022-08-07T11:14:43.607Z,23.04
2022-08-07T11:17:43.416Z,22.96
2022-08-07T11:20:22.513Z,23.01
2022-08-07T11:23:26.381Z,23.10
2022-08-07T11:26:28.730Z,23.18
2022-08-07T11:29:12.907Z,23.25
2022-08-07T11:32:08.644Z,23.41
2022-08-07T11:34:47.950Z,23.40
2022-08-07T11:37:58.338Z,23.75
2022-08-07T11:40:49.854Z,24.66
2022-08-07T11:43:54.491Z,25.68
2022-08-07T11:46:44.769Z,26.07
2022-08-07T11:50:18.590Z,25.89
2022-08-07T11:52:42.836Z,25.67
2022-08-07T11:56:09.293Z,25.37
2022-08-07T11:58:41.620Z,25.18
2022-08-07T12:01:59.727Z,25.45
2022-08-07T12:04:43.052Z,25.51
2022-08-07T12:07:38.736Z,25.42
2022-08-07T12:10:23.182Z,25.25
2022-08-07T12:13:18.639Z,25.67
2022-08-07T12:16:12.165Z,26.90
2022-08-07T12:19:14.611Z,27.17
2022-08-07T12:22:37.258Z,27.85
2022-08-07T12:26:05.311Z,29.12
2022-08-07T12:28:31.007Z,30.65
2022-08-07T12:31:11.856Z,31.84
2022-08-07T12:33:56.549Z,32.83
2022-08-07T12:36:35.163Z,33.79
2022-08-07T12:39:09.383Z,34.10
2022-08-07T12:42:02.375Z,33.95
2022-08-07T12:44:36.046Z,33.76
2022-08-07T12:47:37.266Z,33.76
2022-08-07T12:50:34.215Z,33.53
2022-08-07T12:53:19.297Z,33.09
2022-08-07T12:56:12.504Z,32.33
2022-08-07T12:58:56.946Z,31.73
2022-08-07T13:01:43.270Z,31.14
2022-08-07T13:05:01.363Z,30.55
2022-08-07T13:08:13.986Z,30.04
2022-08-07T13:11:08.740Z,29.61
2022-08-07T13:14:09.047Z,29.28
2022-08-07T13:16:54.821Z,29.20
2022-08-07T13:19:45.944Z,29.98
2022-08-07T13:22:32.221Z,30.25
2022-08-07T13:25:39.523Z,30.03
2022-08-07T13:28:18.725Z,29.82
2022-08-07T13:31:06.514Z,30.12
2022-08-07T13:34:31.956Z,30.94
2022-08-07T13:37:22.342Z,31.91
2022-08-07T13:40:34.885Z,32.80
2022-08-07T13:43:13.390Z,33.56
2022-08-07T13:46:21.852Z,33.73
2022-08-07T13:48:56.100Z,33.84
2022-08-07T13:52:05.098Z,33.73
2022-08-07T13:54:33.433Z,33.28
2022-08-07T13:57:14.515Z,32.82
2022-08-07T14:00:02.096Z,32.53
2022-08-07T14:02:50.820Z,32.35
2022-08-07T14:05:24.966Z,32.35
2022-08-07T14:08:10.471Z,32.77
2022-08-07T14:10:43.722Z,33.42
2022-08-07T14:13:18.847Z,34.12
2022-08-07T14:15:56.955Z,34.78
2022-08-07T14:18:33.183Z,34.87
2022-08-07T14:21:21.170Z,34.88
2022-08-07T14:24:08.859Z,35.11
2022-08-07T14:26:50.607Z,35.61
2022-08-07T14:30:06.700Z,36.09
2022-08-07T14:32:57.425Z,36.47
2022-08-07T14:35:44.658Z,36.52
2022-08-07T14:38:30.855Z,36.73
2022-08-07T14:41:12.231Z,37.02
2022-08-07T14:43:58.617Z,36.76
2022-08-07T14:46:51.555Z,36.00
2022-08-07T14:49:56.975Z,35.34
2022-08-07T14:52:27.593Z,34.91
2022-08-07T14:55:00.678Z,34.75
2022-08-07T14:57:54.621Z,34.86
2022-08-07T15:00:30.883Z,34.37
2022-08-07T15:03:16.659Z,33.85
2022-08-07T15:05:54.911Z,33.07
2022-08-07T15:08:54.587Z,32.39
2022-08-07T15:11:52.843Z,31.70
2022-08-07T15:14:25.468Z,30.90
2022-08-07T15:17:13.958Z,30.24
2022-08-07T15:20:33.926Z,29.81
2022-08-07T15:22:53.978Z,29.52
2022-08-07T15:25:36.463Z,29.34
2022-08-07T15:34:01.810Z,29.18
2022-08-07T15:37:04.686Z,29.10
2022-08-07T15:39:27.485Z,28.98
2022-08-07T15:45:55.396Z,28.61
2022-08-07T15:48:33.652Z,28.39
2022-08-07T15:51:09.940Z,28.29
2022-08-07T15:53:52.655Z,28.18
2022-08-07T15:56:36.782Z,28.12
2022-08-07T15:59:17.427Z,28.04
2022-08-07T16:02:01.899Z,27.97
2022-08-07T16:04:38.149Z,27.89
2022-08-07T16:08:31.976Z,27.77
2022-08-07T16:10:16.753Z,27.69
2022-08-07T16:13:17.581Z,27.58
2022-08-07T16:16:47.869Z,27.51
2022-08-07T16:19:43.176Z,27.43
2022-08-07T16:22:55.803Z,27.32
2022-08-07T16:25:56.148Z,27.24
2022-08-07T16:30:06.825Z,27.19
2022-08-07T16:31:51.527Z,27.16
2022-08-07T16:34:53.139Z,27.12
2022-08-07T16:38:05.694Z,27.08
2022-08-07T16:40:57.081Z,27.02
2022-08-07T16:44:11.253Z,26.92
2022-08-07T16:47:16.741Z,26.83
2022-08-07T16:50:36.881Z,26.73
2022-08-07T16:54:02.872Z,26.63
2022-08-07T16:56:28.974Z,26.52
2022-08-07T16:59:17.357Z,26.45
2022-08-07T17:02:53.004Z,26.39
2022-08-07T17:06:02.264Z,26.30
2022-08-07T17:09:04.399Z,26.27
2022-08-07T17:12:04.499Z,26.21
2022-08-07T17:14:50.764Z,26.12
2022-08-07T17:17:44.092Z,26.04
2022-08-07T17:20:41.842Z,26.00
2022-08-07T17:23:23.185Z,25.94
2022-08-07T17:26:23.162Z,25.86
2022-08-07T17:30:14.323Z,25.80
2022-08-07T17:32:30.301Z,25.75
2022-08-07T17:35:51.817Z,25.69
2022-08-07T17:38:33.801Z,25.63
2022-08-07T17:42:02.740Z,25.57
2022-08-07T17:44:33.746Z,25.50
2022-08-07T17:47:38.011Z,25.46
2022-08-07T17:50:19.392Z,25.40
2022-08-07T17:52:59.785Z,25.34
2022-08-07T17:55:55.944Z,25.28
2022-08-07T17:59:04.243Z,25.24
2022-08-07T18:01:56.801Z,25.16
2022-08-07T18:04:42.130Z,25.10
2022-08-07T18:07:37.309Z,25.03
2022-08-07T18:10:32.601Z,24.97
2022-08-07T18:13:40.430Z,24.93
2022-08-07T18:16:58.614Z,24.89
2022-08-07T18:21:09.539Z,24.83
2022-08-07T18:22:43.701Z,24.77
2022-08-07T18:25:40.101Z,24.71
2022-08-07T18:28:36.126Z,24.69
2022-08-07T18:31:50.040Z,24.66
2022-08-07T18:34:53.439Z,24.60
2022-08-07T18:38:58.484Z,24.55
2022-08-07T18:41:45.625Z,24.53
2022-08-07T18:44:30.655Z,24.46
2022-08-07T18:47:21.038Z,24.40
2022-08-07T18:50:39.182Z,24.31
2022-08-07T18:53:43.031Z,24.24
2022-08-07T18:56:58.402Z,24.17
2022-08-07T18:59:58.806Z,24.12
2022-08-07T19:03:12.117Z,24.08
2022-08-07T19:06:02.463Z,24.02
2022-08-07T19:08:55.642Z,23.99
2022-08-07T19:11:37.345Z,23.95
2022-08-07T19:14:19.814Z,23.92
2022-08-07T19:17:04.665Z,23.88
2022-08-07T19:20:29.683Z,23.83
2022-08-07T19:23:18.839Z,23.78
2022-08-07T19:26:25.102Z,23.71
2022-08-07T19:30:57.198Z,23.67
2022-08-07T19:32:07.759Z,23.63
2022-08-07T19:34:55.290Z,23.58
2022-08-07T19:37:55.449Z,23.53
2022-08-07T19:40:23.063Z,23.47
2022-08-07T19:43:10.719Z,23.41
2022-08-07T19:46:07.333Z,23.38
2022-08-07T19:48:42.968Z,23.36
2022-08-07T19:51:20.334Z,23.32
2022-08-07T19:54:32.943Z,23.29
2022-08-07T19:58:02.224Z,23.24
2022-08-07T19:59:58.526Z,23.21
2022-08-07T20:02:51.839Z,23.17
2022-08-07T20:05:27.908Z,23.13
2022-08-07T20:08:03.213Z,23.10
2022-08-07T20:10:54.977Z,23.07
2022-08-07T20:13:34.446Z,23.03
2022-08-07T20:16:09.825Z,22.99
2022-08-07T20:19:02.820Z,22.96
2022-08-07T20:21:42.080Z,22.92
2022-08-07T20:24:31.513Z,22.88
2022-08-07T20:27:07.424Z,22.84
2022-08-07T20:29:58.468Z,22.81
2022-08-07T20:32:43.555Z,22.77
2022-08-07T20:35:23.271Z,22.73
2022-08-07T20:38:00.885Z,22.72
2022-08-07T20:40:51.462Z,22.69
2022-08-07T20:43:26.761Z,22.67
2022-08-07T20:46:28.849Z,22.64
2022-08-07T20:49:53.839Z,22.59
2022-08-07T20:51:50.382Z,22.57
2022-08-07T20:54:29.959Z,22.52
2022-08-07T20:57:05.085Z,22.48
2022-08-07T21:00:07.502Z,22.44
2022-08-07T21:02:55.330Z,22.39
2022-08-07T21:05:50.899Z,22.35
2022-08-07T21:08:46.812Z,22.30
2022-08-07T21:11:21.939Z,22.24
2022-08-07T21:14:31.912Z,22.22
2022-08-07T21:18:03.121Z,22.18
2022-08-07T21:20:05.161Z,22.15
2022-08-07T21:22:44.811Z,22.13
2022-08-07T21:25:56.973Z,22.11
2022-08-07T21:28:48.406Z,22.08
2022-08-07T21:32:47.010Z,22.04
2022-08-07T21:35:14.514Z,22.01
2022-08-07T21:38:18.388Z,21.98
2022-08-07T21:41:09.630Z,21.96
2022-08-07T21:44:05.222Z,21.95
2022-08-07T21:47:12.361Z,21.94
2022-08-07T21:50:02.006Z,21.92
2022-08-07T21:52:46.935Z,21.91
2022-08-07T21:55:29.831Z,21.91
2022-08-07T21:58:30.074Z,21.92
2022-08-07T22:01:17.715Z,21.89
2022-08-07T22:04:06.107Z,21.86
2022-08-07T22:06:56.054Z,21.83
2022-08-07T22:09:31.433Z,21.77
2022-08-07T22:12:24.753Z,21.73
2022-08-07T22:16:39.130Z,21.68
2022-08-07T22:18:03.261Z,21.62
2022-08-07T22:20:49.429Z,21.57
2022-08-07T22:23:30.591Z,21.54
2022-08-07T22:26:05.960Z,21.52
2022-08-07T22:28:53.164Z,21.50
2022-08-07T22:31:45.756Z,21.47
2022-08-07T22:34:35.620Z,21.46
2022-08-07T22:37:19.230Z,21.43
2022-08-07T22:39:57.325Z,21.41
2022-08-07T22:42:31.792Z,21.39
2022-08-07T22:45:21.923Z,21.35
2022-08-07T22:48:31.749Z,21.32
2022-08-07T22:51:02.775Z,21.28
2022-08-07T22:54:08.460Z,21.26
2022-08-07T22:57:00.725Z,21.24
2022-08-07T22:59:44.650Z,21.20
2022-08-07T23:02:41.617Z,21.17
2022-08-07T23:06:08.934Z,21.15
2022-08-07T23:08:47.951Z,21.11
2022-08-07T23:12:06.792Z,21.08
2022-08-07T23:14:41.803Z,21.05
2022-08-07T23:17:31.555Z,21.05
2022-08-07T23:20:40.487Z,21.04
2022-08-07T23:24:05.207Z,21.04
2022-08-07T23:26:25.034Z,21.05
2022-08-07T23:29:43.467Z,21.04
2022-08-07T23:34:36.244Z,21.02
2022-08-07T23:36:29.736Z,20.96
2022-08-07T23:39:08.673Z,20.92
2022-08-07T23:42:04.817Z,20.91
2022-08-07T23:48:18.497Z,20.88
2022-08-07T23:52:58.439Z,20.86
2022-08-07T23:54:36.493Z,20.83
2022-08-07T23:57:19.345Z,20.80
